createdAt,value
2018-05-05T00:01:27.211Z,12.60
2018-05-05T00:02:27.230Z,12.65
2018-05-05T00:04:25.202Z,12.65
2018-05-05T00:05:25.200Z,12.64
2018-05-05T00:07:20.696Z,12.59
2018-05-05T00:08:20.718Z,12.57
2018-05-05T00:10:14.184Z,12.65
2018-05-05T00:11:14.183Z,12.53
2018-05-05T00:13:08.676Z,12.47
2018-05-05T00:14:08.670Z,12.41
2018-05-05T00:16:02.137Z,12.47
2018-05-05T00:17:02.136Z,12.49
2018-05-05T00:18:56.631Z,12.50
2018-05-05T00:19:56.625Z,12.50
2018-05-05T00:21:50.076Z,12.64
2018-05-05T00:22:50.094Z,12.54
2018-05-05T00:24:44.613Z,12.54
2018-05-05T00:25:44.637Z,12.45
2018-05-05T00:27:38.058Z,12.49
2018-05-05T00:28:38.050Z,12.41
2018-05-05T00:30:32.536Z,12.46
2018-05-05T00:31:32.535Z,12.46
2018-05-05T00:33:25.984Z,12.45
2018-05-05T00:34:26.008Z,12.32
2018-05-05T00:36:20.492Z,12.29
2018-05-05T00:37:20.492Z,12.31
2018-05-05T00:39:13.957Z,12.27
2018-05-05T00:40:13.962Z,12.16
2018-05-05T00:42:07.408Z,12.14
2018-05-05T00:43:07.428Z,12.24
2018-05-05T00:45:01.916Z,12.32
2018-05-05T00:46:01.916Z,12.23
2018-05-05T00:47:56.386Z,12.10
2018-05-05T00:48:56.411Z,12.24
2018-05-05T00:50:50.904Z,12.16
2018-05-05T00:51:50.895Z,12.17
2018-05-05T00:53:45.296Z,12.14
2018-05-05T00:54:45.315Z,12.16
2018-05-05T00:56:38.749Z,12.20
2018-05-05T00:57:38.746Z,12.19
2018-05-05T00:59:33.221Z,12.13
2018-05-05T01:00:33.240Z,11.98
2018-05-05T01:02:26.698Z,12.07
2018-05-05T01:03:26.709Z,11.98
2018-05-05T01:05:20.168Z,12.01
2018-05-05T01:06:20.168Z,12.01
2018-05-05T01:08:13.614Z,11.95
2018-05-05T01:09:13.633Z,11.94
2018-05-05T01:11:07.099Z,11.98
2018-05-05T01:12:07.100Z,11.98
2018-05-05T01:14:00.544Z,11.98
2018-05-05T01:15:00.566Z,11.95
2018-05-05T01:16:54.032Z,11.98
2018-05-05T01:17:54.033Z,11.85
2018-05-05T01:19:48.505Z,11.83
2018-05-05T01:20:48.527Z,11.85
2018-05-05T01:22:41.989Z,11.85
2018-05-05T01:23:41.989Z,11.90
2018-05-05T01:25:35.455Z,11.86
2018-05-05T01:26:35.453Z,11.82
2018-05-05T01:28:28.903Z,11.76
2018-05-05T01:29:28.921Z,11.76
2018-05-05T01:31:22.385Z,11.73
2018-05-05T01:32:22.389Z,11.64
2018-05-05T01:34:15.832Z,11.76
2018-05-05T01:35:15.857Z,11.76
2018-05-05T01:37:09.327Z,11.73
2018-05-05T01:38:09.342Z,11.72
2018-05-05T01:40:02.765Z,11.72
2018-05-05T01:41:02.783Z,11.76
2018-05-05T01:42:57.275Z,11.73
2018-05-05T01:43:57.276Z,11.69
2018-05-05T01:45:50.721Z,11.73
2018-05-05T01:46:50.738Z,11.65
2018-05-05T01:48:44.205Z,11.54
2018-05-05T01:49:44.202Z,11.58
2018-05-05T01:51:37.670Z,11.54
2018-05-05T01:52:37.672Z,11.49
2018-05-05T01:54:31.117Z,11.46
2018-05-05T01:55:31.136Z,11.37
2018-05-05T01:57:24.600Z,11.40
2018-05-05T01:58:24.602Z,11.46
2018-05-05T02:00:18.052Z,11.43
2018-05-05T02:01:18.068Z,11.51
2018-05-05T02:03:11.534Z,11.42
2018-05-05T02:04:11.535Z,11.39
2018-05-05T02:06:04.983Z,11.40
2018-05-05T02:07:05.003Z,11.36
2018-05-05T02:08:58.466Z,11.40
2018-05-05T02:09:58.466Z,11.33
2018-05-05T02:11:51.918Z,11.27
2018-05-05T02:12:51.933Z,11.35
2018-05-05T02:14:45.395Z,11.27
2018-05-05T02:15:45.398Z,11.32
2018-05-05T02:17:38.861Z,11.21
2018-05-05T02:18:38.863Z,11.14
2018-05-05T02:20:32.309Z,11.18
2018-05-05T02:21:32.385Z,11.17
2018-05-05T02:23:25.792Z,11.15
2018-05-05T02:24:25.797Z,11.17
2018-05-05T02:26:19.240Z,11.22
2018-05-05T02:27:19.262Z,11.24
2018-05-05T02:29:12.217Z,11.24
2018-05-05T02:30:12.211Z,11.32
2018-05-05T02:32:05.659Z,11.28
2018-05-05T02:33:05.682Z,11.19
2018-05-05T02:34:59.147Z,11.21
2018-05-05T02:35:59.144Z,11.17
2018-05-05T02:37:52.612Z,11.11
2018-05-05T02:38:52.628Z,11.21
2018-05-05T02:40:46.058Z,11.11
2018-05-05T02:41:46.087Z,11.15
2018-05-05T02:43:39.545Z,11.14
2018-05-05T02:44:39.547Z,11.04
2018-05-05T02:46:32.989Z,11.00
2018-05-05T02:47:33.012Z,10.96
2018-05-05T02:49:26.475Z,11.00
2018-05-05T02:50:26.474Z,11.02
2018-05-05T02:52:19.923Z,11.11
2018-05-05T02:53:19.940Z,11.02
2018-05-05T02:55:30.531Z,11.15
2018-05-05T02:56:21.024Z,11.02
2018-05-05T02:58:06.463Z,11.00
2018-05-05T02:59:06.482Z,11.03
2018-05-05T03:00:59.542Z,10.99
2018-05-05T03:01:59.540Z,11.00
2018-05-05T03:03:52.592Z,10.89
2018-05-05T03:04:52.598Z,10.92
2018-05-05T03:06:45.633Z,10.91
2018-05-05T03:07:45.651Z,10.85
2018-05-05T03:09:38.706Z,10.82
2018-05-05T03:10:38.708Z,10.79
2018-05-05T03:12:31.744Z,10.85
2018-05-05T03:13:31.848Z,10.86
2018-05-05T03:15:24.821Z,10.78
2018-05-05T03:16:24.823Z,10.78
2018-05-05T03:18:17.860Z,10.76
2018-05-05T03:19:17.878Z,10.74
2018-05-05T03:21:11.293Z,10.64
2018-05-05T03:22:11.292Z,10.74
2018-05-05T03:24:04.383Z,10.78
2018-05-05T03:25:04.395Z,10.71
2018-05-05T03:26:57.479Z,10.79
2018-05-05T03:27:57.462Z,10.76
2018-05-05T03:29:50.514Z,10.76
2018-05-05T03:30:50.511Z,10.82
2018-05-05T03:32:43.550Z,10.84
2018-05-05T03:33:43.571Z,10.78
2018-05-05T03:35:36.627Z,10.74
2018-05-05T03:36:36.628Z,10.71
2018-05-05T03:38:29.665Z,10.73
2018-05-05T03:39:29.685Z,10.71
2018-05-05T03:41:22.838Z,10.76
2018-05-05T03:42:22.839Z,10.71
2018-05-05T03:44:15.876Z,10.71
2018-05-05T03:45:15.896Z,10.76
2018-05-05T03:47:09.310Z,10.81
2018-05-05T03:48:09.307Z,10.82
2018-05-05T03:50:02.416Z,10.85
2018-05-05T03:51:02.414Z,10.79
2018-05-05T03:52:55.312Z,10.79
2018-05-05T03:53:55.330Z,10.82
2018-05-05T03:55:48.252Z,10.79
2018-05-05T03:56:48.248Z,10.81
2018-05-05T03:58:41.145Z,10.79
2018-05-05T03:59:41.163Z,10.88
2018-05-05T04:01:34.084Z,10.91
2018-05-05T04:02:34.084Z,10.89
2018-05-05T04:04:26.981Z,10.92
2018-05-05T04:05:26.999Z,11.00
2018-05-05T04:07:19.915Z,10.99
2018-05-05T04:08:19.916Z,10.96
2018-05-05T04:10:12.818Z,10.97
2018-05-05T04:11:12.833Z,11.04
2018-05-05T04:13:05.746Z,11.09
2018-05-05T04:14:05.746Z,11.07
2018-05-05T04:15:58.663Z,11.11
2018-05-05T04:16:58.663Z,11.35
2018-05-05T04:18:51.763Z,11.57
2018-05-05T04:19:51.780Z,11.64
2018-05-05T04:21:44.698Z,12.13
2018-05-05T04:22:44.700Z,12.27
2018-05-05T04:24:37.599Z,12.75
2018-05-05T04:25:37.618Z,12.95
2018-05-05T04:27:30.586Z,13.29
2018-05-05T04:28:31.606Z,13.63
2018-05-05T04:30:23.435Z,14.07
2018-05-05T04:31:23.453Z,14.32
2018-05-05T04:33:16.377Z,14.68
2018-05-05T04:34:16.377Z,14.89
2018-05-05T04:36:09.294Z,14.91
2018-05-05T04:37:09.294Z,15.07
2018-05-05T04:39:02.412Z,15.06
2018-05-05T04:40:02.433Z,14.96
2018-05-05T04:41:55.355Z,14.94
2018-05-05T04:42:55.357Z,15.09
2018-05-05T04:44:48.416Z,15.17
2018-05-05T04:45:48.439Z,15.32
2018-05-05T04:47:41.499Z,15.38
2018-05-05T04:48:41.501Z,15.32
2018-05-05T04:50:34.406Z,15.07
2018-05-05T04:51:34.427Z,15.19
2018-05-05T04:53:27.525Z,14.80
2018-05-05T04:54:27.580Z,14.51
2018-05-05T04:56:20.433Z,14.21
2018-05-05T04:57:20.511Z,14.03
2018-05-05T04:59:13.377Z,13.79
2018-05-05T05:00:13.378Z,13.78
2018-05-05T05:02:06.469Z,13.71
2018-05-05T05:03:06.474Z,13.73
2018-05-05T05:04:59.376Z,13.57
2018-05-05T05:05:59.397Z,13.57
2018-05-05T05:07:52.484Z,13.29
2018-05-05T05:08:52.485Z,13.12
2018-05-05T05:10:45.387Z,13.12
2018-05-05T05:11:45.405Z,12.87
2018-05-05T05:13:38.488Z,12.86
2018-05-05T05:14:38.491Z,12.97
2018-05-05T05:16:31.393Z,12.89
2018-05-05T05:17:31.414Z,12.87
2018-05-05T05:19:24.500Z,12.67
2018-05-05T05:20:24.503Z,12.70
2018-05-05T05:22:17.562Z,12.74
2018-05-05T05:23:17.564Z,12.68
2018-05-05T05:25:10.470Z,12.77
2018-05-05T05:26:10.488Z,12.77
2018-05-05T05:28:03.414Z,12.83
2018-05-05T05:29:03.413Z,12.87
2018-05-05T05:30:56.501Z,12.95
2018-05-05T05:31:56.521Z,13.05
2018-05-05T05:33:49.991Z,13.03
2018-05-05T05:34:49.576Z,13.03
2018-05-05T05:36:42.621Z,13.12
2018-05-05T05:37:42.640Z,13.12
2018-05-05T05:39:35.791Z,13.22
2018-05-05T05:40:35.793Z,13.29
2018-05-05T05:42:28.849Z,13.32
2018-05-05T05:43:28.852Z,13.28
2018-05-05T05:45:21.891Z,13.39
2018-05-05T05:46:21.911Z,13.48
2018-05-05T05:48:14.832Z,13.55
2018-05-05T05:49:14.833Z,13.48
2018-05-05T05:51:07.738Z,13.59
2018-05-05T05:52:07.761Z,13.52
2018-05-05T05:54:00.680Z,13.62
2018-05-05T05:55:00.679Z,13.64
2018-05-05T05:56:53.806Z,13.64
2018-05-05T05:57:53.825Z,13.77
2018-05-05T05:59:46.987Z,14.12
2018-05-05T06:00:46.982Z,14.32
2018-05-05T06:02:40.146Z,14.94
2018-05-05T06:03:40.144Z,15.38
2018-05-05T06:05:33.281Z,16.00
2018-05-05T06:06:33.306Z,16.41
2018-05-05T06:08:27.381Z,17.06
2018-05-05T06:09:27.386Z,17.40
2018-05-05T06:11:20.521Z,17.95
2018-05-05T06:12:20.543Z,18.25
2018-05-05T06:14:13.478Z,18.72
2018-05-05T06:15:13.490Z,18.76
2018-05-05T06:17:06.400Z,18.88
2018-05-05T06:18:06.433Z,18.99
2018-05-05T06:19:59.505Z,19.44
2018-05-05T06:20:59.513Z,19.69
2018-05-05T06:22:52.852Z,20.26
2018-05-05T06:23:52.877Z,20.32
2018-05-05T06:25:46.030Z,20.76
2018-05-05T06:26:46.035Z,21.06
2018-05-05T06:28:39.187Z,21.54
2018-05-05T06:29:39.194Z,21.38
2018-05-05T06:31:32.326Z,21.94
2018-05-05T06:32:32.355Z,21.98
2018-05-05T06:34:25.539Z,21.98
2018-05-05T06:35:25.513Z,21.98
2018-05-05T06:37:18.664Z,22.09
2018-05-05T06:38:18.673Z,21.99
2018-05-05T06:40:11.829Z,22.03
2018-05-05T06:41:11.837Z,21.91
2018-05-05T06:43:04.964Z,21.59
2018-05-05T06:44:04.990Z,21.42
2018-05-05T06:45:58.136Z,21.03
2018-05-05T06:46:58.149Z,21.10
2018-05-05T06:48:51.097Z,20.94
2018-05-05T06:49:51.099Z,20.73
2018-05-05T06:51:44.233Z,20.52
2018-05-05T06:52:44.263Z,20.57
2018-05-05T06:54:37.412Z,20.74
2018-05-05T06:55:37.424Z,20.85
2018-05-05T06:57:30.839Z,20.84
2018-05-05T06:58:30.871Z,20.89
2018-05-05T07:00:23.815Z,21.13
2018-05-05T07:01:23.828Z,21.19
2018-05-05T07:03:17.896Z,20.97
2018-05-05T07:04:17.926Z,21.19
2018-05-05T07:06:11.071Z,21.28
2018-05-05T07:07:11.085Z,21.25
2018-05-05T07:09:04.312Z,20.88
2018-05-05T07:10:04.239Z,20.77
2018-05-05T07:11:57.368Z,20.59
2018-05-05T07:12:57.397Z,20.48
2018-05-05T07:14:50.543Z,20.24
2018-05-05T07:15:50.554Z,20.02
2018-05-05T07:17:43.476Z,19.59
2018-05-05T07:18:43.502Z,19.50
2018-05-05T07:20:37.583Z,19.47
2018-05-05T07:21:37.595Z,19.47
2018-05-05T07:23:30.719Z,19.47
2018-05-05T07:24:30.744Z,19.32
2018-05-05T07:26:23.898Z,19.39
2018-05-05T07:27:23.905Z,19.26
2018-05-05T07:29:16.834Z,19.14
2018-05-05T07:30:16.842Z,18.95
2018-05-05T07:32:09.758Z,18.80
2018-05-05T07:33:09.779Z,18.57
2018-05-05T07:35:02.710Z,18.35
2018-05-05T07:36:02.715Z,18.29
2018-05-05T07:37:55.632Z,18.27
2018-05-05T07:38:55.652Z,18.27
2018-05-05T07:40:48.580Z,18.18
2018-05-05T07:41:48.586Z,18.00
2018-05-05T07:43:41.498Z,17.99
2018-05-05T07:44:41.522Z,18.05
2018-05-05T07:46:34.451Z,18.17
2018-05-05T07:47:34.455Z,18.21
2018-05-05T07:49:27.391Z,18.14
2018-05-05T07:50:27.389Z,18.26
2018-05-05T07:52:20.301Z,18.44
2018-05-05T07:53:20.332Z,18.32
2018-05-05T07:55:13.429Z,18.03
2018-05-05T07:56:13.436Z,18.10
2018-05-05T07:58:06.345Z,18.11
2018-05-05T07:59:06.405Z,17.95
2018-05-05T08:00:59.358Z,17.87
2018-05-05T08:01:59.299Z,17.81
2018-05-05T08:03:52.212Z,17.64
2018-05-05T08:04:52.234Z,17.59
2018-05-05T08:06:45.160Z,17.64
2018-05-05T08:07:45.165Z,17.75
2018-05-05T08:09:38.092Z,17.79
2018-05-05T08:10:38.097Z,17.95
2018-05-05T08:12:31.005Z,17.71
2018-05-05T08:13:31.040Z,17.54
2018-05-05T08:15:23.958Z,17.66
2018-05-05T08:16:23.964Z,17.59
2018-05-05T08:18:16.875Z,17.43
2018-05-05T08:19:16.895Z,17.43
2018-05-05T08:21:09.828Z,17.56
2018-05-05T08:22:09.836Z,17.64
2018-05-05T08:24:02.752Z,17.75
2018-05-05T08:25:02.766Z,17.89
2018-05-05T08:26:55.695Z,18.11
2018-05-05T08:27:55.702Z,18.23
2018-05-05T08:29:48.615Z,18.18
2018-05-05T08:30:48.642Z,18.21
2018-05-05T08:32:41.568Z,18.44
2018-05-05T08:33:41.623Z,18.54
2018-05-05T08:35:34.500Z,18.66
2018-05-05T08:36:34.507Z,18.67
2018-05-05T08:38:27.617Z,18.67
2018-05-05T08:39:27.640Z,18.72
2018-05-05T08:41:20.568Z,18.87
2018-05-05T08:42:20.576Z,18.81
2018-05-05T08:44:13.484Z,18.82
2018-05-05T08:45:13.507Z,18.87
2018-05-05T08:47:06.434Z,18.87
2018-05-05T08:48:06.439Z,18.81
2018-05-05T08:49:59.541Z,18.87
2018-05-05T08:50:59.566Z,18.80
2018-05-05T08:52:52.498Z,18.82
2018-05-05T08:53:52.502Z,18.87
2018-05-05T08:55:45.429Z,18.75
2018-05-05T08:56:45.433Z,18.69
2018-05-05T08:58:38.345Z,18.67
2018-05-05T08:59:38.369Z,18.65
2018-05-05T09:01:31.300Z,18.78
2018-05-05T09:02:31.316Z,18.88
2018-05-05T09:04:24.250Z,18.82
2018-05-05T09:05:24.250Z,18.95
2018-05-05T09:07:17.175Z,19.00
2018-05-05T09:08:17.180Z,18.92
2018-05-05T09:10:10.091Z,18.99
2018-05-05T09:11:10.118Z,19.02
2018-05-05T09:13:03.596Z,18.98
2018-05-05T09:14:03.145Z,19.02
2018-05-05T09:15:56.025Z,18.99
2018-05-05T09:16:56.024Z,18.87
2018-05-05T09:18:48.938Z,18.75
2018-05-05T09:19:48.967Z,18.75
2018-05-05T09:21:41.893Z,18.84
2018-05-05T09:22:41.899Z,18.87
2018-05-05T09:24:34.982Z,18.94
2018-05-05T09:25:35.007Z,19.06
2018-05-05T09:27:27.937Z,19.32
2018-05-05T09:28:27.944Z,19.47
2018-05-05T09:30:20.856Z,19.74
2018-05-05T09:31:20.880Z,19.86
2018-05-05T09:33:13.818Z,19.83
2018-05-05T09:34:13.827Z,19.95
2018-05-05T09:36:06.754Z,19.96
2018-05-05T09:37:06.765Z,19.96
2018-05-05T09:38:59.672Z,20.01
2018-05-05T09:39:59.698Z,19.95
2018-05-05T09:41:52.675Z,19.91
2018-05-05T09:42:52.640Z,19.80
2018-05-05T09:44:45.593Z,19.87
2018-05-05T09:45:45.666Z,19.95
2018-05-05T09:47:40.009Z,20.01
2018-05-05T09:48:40.016Z,20.14
2018-05-05T09:50:32.929Z,20.10
2018-05-05T09:51:32.951Z,20.11
2018-05-05T09:53:25.990Z,20.02
2018-05-05T09:54:25.902Z,19.92
2018-05-05T09:56:18.821Z,19.86
2018-05-05T09:57:18.828Z,19.83
2018-05-05T09:59:11.738Z,20.03
2018-05-05T10:00:11.765Z,20.11
2018-05-05T10:02:04.719Z,20.17
2018-05-05T10:03:04.721Z,20.14
2018-05-05T10:04:57.656Z,20.23
2018-05-05T10:05:57.646Z,20.31
2018-05-05T10:07:50.570Z,20.39
2018-05-05T10:08:50.599Z,20.32
2018-05-05T10:10:44.485Z,20.26
2018-05-05T10:11:44.510Z,20.33
2018-05-05T10:13:37.670Z,20.39
2018-05-05T10:14:37.589Z,20.31
2018-05-05T10:16:30.520Z,20.32
2018-05-05T10:17:30.531Z,20.29
2018-05-05T10:19:23.441Z,20.43
2018-05-05T10:20:23.463Z,20.42
2018-05-05T10:22:16.395Z,20.52
2018-05-05T10:23:16.397Z,20.48
2018-05-05T10:25:09.310Z,20.42
2018-05-05T10:26:09.338Z,20.47
2018-05-05T10:28:02.266Z,20.17
2018-05-05T10:29:02.299Z,20.13
2018-05-05T10:30:55.186Z,20.13
2018-05-05T10:31:55.250Z,20.10
2018-05-05T10:33:48.143Z,19.98
2018-05-05T10:34:48.147Z,20.16
2018-05-05T10:36:41.082Z,20.26
2018-05-05T10:37:41.129Z,20.21
2018-05-05T10:39:34.002Z,20.23
2018-05-05T10:40:34.028Z,20.28
2018-05-05T10:42:26.962Z,20.36
2018-05-05T10:43:26.966Z,20.43
2018-05-05T10:45:19.881Z,20.42
2018-05-05T10:46:19.910Z,20.43
2018-05-05T10:48:12.840Z,20.42
2018-05-05T10:49:12.849Z,20.51
2018-05-05T10:51:05.759Z,20.52
2018-05-05T10:52:05.782Z,20.57
2018-05-05T10:53:58.715Z,20.57
2018-05-05T10:54:58.724Z,20.61
2018-05-05T10:56:51.916Z,20.70
2018-05-05T10:57:51.793Z,20.73
2018-05-05T10:59:44.705Z,20.59
2018-05-05T11:00:44.732Z,20.64
2018-05-05T11:02:37.816Z,20.67
2018-05-05T11:03:37.811Z,20.79
2018-05-05T11:05:30.724Z,20.69
2018-05-05T11:06:30.747Z,20.61
2018-05-05T11:08:23.736Z,20.61
2018-05-05T11:09:23.687Z,20.64
2018-05-05T11:11:16.600Z,20.42
2018-05-05T11:12:16.630Z,20.50
2018-05-05T11:14:09.560Z,20.50
2018-05-05T11:15:09.568Z,20.57
2018-05-05T11:17:02.529Z,20.43
2018-05-05T11:18:02.513Z,20.42
2018-05-05T11:19:55.597Z,20.41
2018-05-05T11:20:55.625Z,20.43
2018-05-05T11:22:48.555Z,20.50
2018-05-05T11:23:48.571Z,20.59
2018-05-05T11:25:41.476Z,20.59
2018-05-05T11:26:41.507Z,20.43
2018-05-05T11:28:34.431Z,20.31
2018-05-05T11:29:34.437Z,20.29
2018-05-05T11:31:27.354Z,20.28
2018-05-05T11:32:27.382Z,20.43
2018-05-05T11:34:20.311Z,20.55
2018-05-05T11:35:20.324Z,20.55
2018-05-05T11:37:13.508Z,20.64
2018-05-05T11:38:13.464Z,20.58
2018-05-05T11:40:06.361Z,20.57
2018-05-05T11:41:06.387Z,20.58
2018-05-05T11:42:59.331Z,20.54
2018-05-05T11:43:59.330Z,20.59
2018-05-05T11:45:52.238Z,20.72
2018-05-05T11:46:52.265Z,20.70
2018-05-05T11:48:45.689Z,20.73
2018-05-05T11:49:45.700Z,20.84
2018-05-05T11:51:38.608Z,20.87
2018-05-05T11:52:38.632Z,20.82
2018-05-05T11:54:31.563Z,20.76
2018-05-05T11:55:31.571Z,20.73
2018-05-05T11:57:24.502Z,20.91
2018-05-05T11:58:24.514Z,21.01
2018-05-05T12:00:17.421Z,21.07
2018-05-05T12:01:17.446Z,21.09
2018-05-05T12:03:10.379Z,21.25
2018-05-05T12:04:10.390Z,21.25
2018-05-05T12:06:03.300Z,21.25
2018-05-05T12:07:03.331Z,21.25
2018-05-05T12:08:56.254Z,21.28
2018-05-05T12:09:56.262Z,21.25
2018-05-05T12:11:49.380Z,21.40
2018-05-05T12:12:49.406Z,21.25
2018-05-05T12:14:42.338Z,21.37
2018-05-05T12:15:42.346Z,21.40
2018-05-05T12:17:35.387Z,21.40
2018-05-05T12:18:35.312Z,21.43
2018-05-05T12:20:28.224Z,21.50
2018-05-05T12:21:28.249Z,21.46
2018-05-05T12:23:21.183Z,21.42
2018-05-05T12:24:21.189Z,21.42
2018-05-05T12:26:14.103Z,21.42
2018-05-05T12:27:14.134Z,21.53
2018-05-05T12:29:07.066Z,21.54
2018-05-05T12:30:07.072Z,21.50
2018-05-05T12:31:59.984Z,21.53
2018-05-05T12:33:00.013Z,21.69
2018-05-05T12:34:52.939Z,21.82
2018-05-05T12:35:52.948Z,21.71
2018-05-05T12:37:45.881Z,21.79
2018-05-05T12:38:45.891Z,21.77
2018-05-05T12:40:38.806Z,21.91
2018-05-05T12:41:38.826Z,21.90
2018-05-05T12:43:31.763Z,21.91
2018-05-05T12:44:31.791Z,21.99
2018-05-05T12:46:24.682Z,21.83
2018-05-05T12:47:24.712Z,21.79
2018-05-05T12:49:17.640Z,21.86
2018-05-05T12:50:17.647Z,21.90
2018-05-05T12:52:10.562Z,21.83
2018-05-05T12:53:10.586Z,21.77
2018-05-05T12:55:03.515Z,21.98
2018-05-05T12:56:03.522Z,21.90
2018-05-05T12:57:56.453Z,21.98
2018-05-05T12:58:56.528Z,22.07
2018-05-05T13:00:49.372Z,22.12
2018-05-05T13:01:49.399Z,22.20
2018-05-05T13:03:42.339Z,22.24
2018-05-05T13:04:42.344Z,22.31
2018-05-05T13:06:35.254Z,22.35
2018-05-05T13:07:35.329Z,22.18
2018-05-05T13:09:28.217Z,22.24
2018-05-05T13:10:28.226Z,22.18
2018-05-05T13:12:21.137Z,22.30
2018-05-05T13:13:21.162Z,22.18
2018-05-05T13:15:14.135Z,22.05
2018-05-05T13:16:14.111Z,21.98
2018-05-05T13:18:07.037Z,21.88
2018-05-05T13:19:07.051Z,21.88
2018-05-05T13:21:00.177Z,21.98
2018-05-05T13:22:00.202Z,21.75
2018-05-05T13:23:53.658Z,21.88
2018-05-05T13:24:53.361Z,21.91
2018-05-05T13:26:46.317Z,22.00
2018-05-05T13:27:46.317Z,22.02
2018-05-05T13:29:39.239Z,22.00
2018-05-05T13:30:39.260Z,22.00
2018-05-05T13:32:32.171Z,22.07
2018-05-05T13:33:32.197Z,22.22
2018-05-05T13:35:25.642Z,22.21
2018-05-05T13:36:25.747Z,22.22
2018-05-05T13:38:18.862Z,22.22
2018-05-05T13:39:18.726Z,22.33
2018-05-05T13:41:11.694Z,22.33
2018-05-05T13:42:11.724Z,22.31
2018-05-05T13:44:04.755Z,22.24
2018-05-05T13:45:04.714Z,22.30
2018-05-05T13:46:57.584Z,22.28
2018-05-05T13:47:57.649Z,22.31
2018-05-05T13:49:50.854Z,22.25
2018-05-05T13:50:50.784Z,22.35
2018-05-05T13:52:43.892Z,22.40
2018-05-05T13:53:43.918Z,22.40
2018-05-05T13:55:36.966Z,22.40
2018-05-05T13:56:36.891Z,22.33
2018-05-05T13:58:29.925Z,22.06
2018-05-05T13:59:29.920Z,22.09
2018-05-05T14:01:22.766Z,22.14
2018-05-05T14:02:22.797Z,22.22
2018-05-05T14:04:15.724Z,22.27
2018-05-05T14:05:15.739Z,22.28
2018-05-05T14:07:08.647Z,22.24
2018-05-05T14:08:08.679Z,22.21
2018-05-05T14:10:01.614Z,22.12
2018-05-05T14:11:01.620Z,22.00
2018-05-05T14:12:54.530Z,22.02
2018-05-05T14:13:54.569Z,22.00
2018-05-05T14:15:47.492Z,21.99
2018-05-05T14:16:47.504Z,22.02
2018-05-05T14:18:40.443Z,22.21
2018-05-05T14:19:40.449Z,22.12
2018-05-05T14:21:33.365Z,22.21
2018-05-05T14:22:33.456Z,22.21
2018-05-05T14:24:26.332Z,22.21
2018-05-05T14:25:26.337Z,22.25
2018-05-05T14:27:19.247Z,22.22
2018-05-05T14:28:19.282Z,22.28
2018-05-05T14:30:12.205Z,22.49
2018-05-05T14:31:12.219Z,22.47
2018-05-05T14:33:05.128Z,22.36
2018-05-05T14:34:05.159Z,22.31
2018-05-05T14:35:58.091Z,22.31
2018-05-05T14:36:58.105Z,22.31
2018-05-05T14:38:51.039Z,22.30
2018-05-05T14:39:51.138Z,22.35
2018-05-05T14:41:43.963Z,22.30
2018-05-05T14:42:43.983Z,22.30
2018-05-05T14:44:36.920Z,22.37
2018-05-05T14:45:36.930Z,22.42
2018-05-05T14:47:29.851Z,22.27
2018-05-05T14:48:29.876Z,22.20
2018-05-05T14:50:22.806Z,22.21
2018-05-05T14:51:22.878Z,22.21
2018-05-05T14:53:15.739Z,22.10
2018-05-05T14:54:15.765Z,22.20
2018-05-05T14:56:08.687Z,22.17
2018-05-05T14:57:08.694Z,22.12
2018-05-05T14:59:01.725Z,22.22
2018-05-05T15:00:01.640Z,22.31
2018-05-05T15:01:54.573Z,22.28
2018-05-05T15:02:54.584Z,22.25
2018-05-05T15:04:47.514Z,22.27
2018-05-05T15:05:47.526Z,22.22
2018-05-05T15:07:40.439Z,22.35
2018-05-05T15:08:40.476Z,22.24
2018-05-05T15:10:33.400Z,22.33
2018-05-05T15:11:33.411Z,22.30
2018-05-05T15:13:26.320Z,22.43
2018-05-05T15:14:26.346Z,22.43
2018-05-05T15:16:19.283Z,22.52
2018-05-05T15:17:19.291Z,22.51
2018-05-05T15:19:12.222Z,22.49
2018-05-05T15:20:12.236Z,22.55
2018-05-05T15:22:05.202Z,22.46
2018-05-05T15:23:05.206Z,22.47
2018-05-05T15:24:58.139Z,22.60
2018-05-05T15:25:58.151Z,22.52
2018-05-05T15:27:51.064Z,22.49
2018-05-05T15:28:51.093Z,22.45
2018-05-05T15:30:44.022Z,22.27
2018-05-05T15:31:44.033Z,22.31
2018-05-05T15:33:36.967Z,22.22
2018-05-05T15:34:36.990Z,22.22
2018-05-05T15:36:30.009Z,22.18
2018-05-05T15:37:29.931Z,22.25
2018-05-05T15:39:22.849Z,22.22
2018-05-05T15:40:22.876Z,22.28
2018-05-05T15:42:15.807Z,22.25
2018-05-05T15:43:15.815Z,22.33
2018-05-05T15:45:08.747Z,22.28
2018-05-05T15:46:08.754Z,22.31
2018-05-05T15:48:01.688Z,22.47
2018-05-05T15:49:01.699Z,22.52
2018-05-05T15:50:54.844Z,22.43
2018-05-05T15:51:54.847Z,22.46
2018-05-05T15:53:47.772Z,22.43
2018-05-05T15:54:47.799Z,22.31
2018-05-05T15:56:40.753Z,22.33
2018-05-05T15:57:40.763Z,22.33
2018-05-05T15:59:33.712Z,22.43
2018-05-05T16:00:33.708Z,22.47
2018-05-05T16:02:26.618Z,22.31
2018-05-05T16:03:26.670Z,22.22
2018-05-05T16:05:19.581Z,22.24
2018-05-05T16:06:19.588Z,22.20
2018-05-05T16:08:12.503Z,22.22
2018-05-05T16:09:12.531Z,22.17
2018-05-05T16:11:05.564Z,22.22
2018-05-05T16:12:05.474Z,22.20
2018-05-05T16:13:58.388Z,22.24
2018-05-05T16:14:58.417Z,22.24
2018-05-05T16:16:51.345Z,22.25
2018-05-05T16:17:51.356Z,22.25
2018-05-05T16:19:44.275Z,22.24
2018-05-05T16:20:44.304Z,22.10
2018-05-05T16:22:37.255Z,22.02
2018-05-05T16:23:37.265Z,21.99
2018-05-05T16:25:30.228Z,21.96
2018-05-05T16:26:31.447Z,22.00
2018-05-05T16:28:23.218Z,22.10
2018-05-05T16:29:23.182Z,22.20
2018-05-05T16:31:16.143Z,22.21
2018-05-05T16:32:16.151Z,22.06
2018-05-05T16:34:09.066Z,21.98
2018-05-05T16:35:09.096Z,22.02
2018-05-05T16:37:02.027Z,21.98
2018-05-05T16:38:02.035Z,22.00
2018-05-05T16:39:54.952Z,22.09
2018-05-05T16:40:54.983Z,22.07
2018-05-05T16:42:48.091Z,22.00
2018-05-05T16:43:48.103Z,22.03
2018-05-05T16:45:41.030Z,22.02
2018-05-05T16:46:41.042Z,22.00
2018-05-05T16:48:33.952Z,21.99
2018-05-05T16:49:33.984Z,21.98
2018-05-05T16:51:26.913Z,21.90
2018-05-05T16:52:26.922Z,21.90
2018-05-05T16:54:19.839Z,21.99
2018-05-05T16:55:19.868Z,21.98
2018-05-05T16:57:12.814Z,21.98
2018-05-05T16:58:12.823Z,22.03
2018-05-05T17:00:05.737Z,22.02
2018-05-05T17:01:05.768Z,21.98
2018-05-05T17:02:58.790Z,21.88
2018-05-05T17:03:58.711Z,21.88
2018-05-05T17:05:51.648Z,21.91
2018-05-05T17:06:51.656Z,21.94
2018-05-05T17:08:44.566Z,22.02
2018-05-05T17:09:44.598Z,22.03
2018-05-05T17:11:37.529Z,22.00
2018-05-05T17:12:37.541Z,22.14
2018-05-05T17:14:30.447Z,22.20
2018-05-05T17:15:30.477Z,22.21
2018-05-05T17:17:23.412Z,22.25
2018-05-05T17:18:23.418Z,22.22
2018-05-05T17:20:16.331Z,22.21
2018-05-05T17:21:16.363Z,22.20
2018-05-05T17:23:09.292Z,22.10
2018-05-05T17:24:09.297Z,22.14
2018-05-05T17:26:02.246Z,22.07
2018-05-05T17:27:02.242Z,21.94
2018-05-05T17:28:55.154Z,21.86
2018-05-05T17:29:55.180Z,21.79
2018-05-05T17:31:48.112Z,21.65
2018-05-05T17:32:48.117Z,21.65
2018-05-05T17:34:41.032Z,21.46
2018-05-05T17:35:41.063Z,21.44
2018-05-05T17:37:33.992Z,21.27
2018-05-05T17:38:34.007Z,21.27
2018-05-05T17:40:26.911Z,21.32
2018-05-05T17:41:26.941Z,21.29
2018-05-05T17:43:19.876Z,21.32
2018-05-05T17:44:19.881Z,21.27
2018-05-05T17:46:13.807Z,21.17
2018-05-05T17:47:13.814Z,21.25
2018-05-05T17:49:06.724Z,21.19
2018-05-05T17:50:06.751Z,21.28
2018-05-05T17:51:59.685Z,21.28
2018-05-05T17:52:59.695Z,21.24
2018-05-05T17:54:52.603Z,21.24
2018-05-05T17:55:52.636Z,21.09
2018-05-05T17:57:45.561Z,20.99
2018-05-05T17:58:45.573Z,21.01
2018-05-05T18:00:38.485Z,21.21
2018-05-05T18:01:38.507Z,21.25
2018-05-05T18:03:31.441Z,21.27
2018-05-05T18:04:31.536Z,21.46
2018-05-05T18:06:24.393Z,21.58
2018-05-05T18:07:24.400Z,21.54
2018-05-05T18:09:17.320Z,21.56
2018-05-05T18:10:17.388Z,21.54
2018-05-05T18:12:10.269Z,21.44
2018-05-05T18:13:10.282Z,21.43
2018-05-05T18:15:03.197Z,21.49
2018-05-05T18:16:03.222Z,21.34
2018-05-05T18:17:56.152Z,21.29
2018-05-05T18:18:56.161Z,21.32
2018-05-05T18:20:49.074Z,21.24
2018-05-05T18:21:49.173Z,21.21
2018-05-05T18:23:42.190Z,21.01
2018-05-05T18:24:42.199Z,20.97
2018-05-05T18:26:35.146Z,20.74
2018-05-05T18:27:35.144Z,20.59
2018-05-05T18:29:28.050Z,20.28
2018-05-05T18:30:28.081Z,20.20
2018-05-05T18:32:21.011Z,20.05
2018-05-05T18:33:21.020Z,19.98
2018-05-05T18:35:13.927Z,19.95